sensor_id;sensor_type;location;lat;lon;timestamp;P1;durP1;ratioP1;P2;durP2;ratioP2
61397;SDS011;47267;48.130;-2.040;2023-06-14T00:01:52;8.75;;;6.22;;
61397;SDS011;47267;48.130;-2.040;2023-06-14T00:04:17;7.10;;;6.22;;
61397;SDS011;47267;48.130;-2.040;2023-06-14T00:06:45;7.40;;;6.43;;
61397;SDS011;47267;48.130;-2.040;2023-06-14T00:09:12;7.07;;;5.90;;
61397;SDS011;47267;48.130;-2.040;2023-06-14T00:11:38;8.98;;;6.38;;
61397;SDS011;47267;48.130;-2.040;2023-06-14T00:14:05;6.60;;;5.95;;
61397;SDS011;47267;48.130;-2.040;2023-06-14T00:16:31;7.47;;;5.97;;
61397;SDS011;47267;48.130;-2.040;2023-06-14T00:18:58;7.60;;;6.57;;
61397;SDS011;47267;48.130;-2.040;2023-06-14T00:21:24;7.22;;;6.15;;
61397;SDS011;47267;48.130;-2.040;2023-06-14T00:23:49;6.20;;;5.60;;
61397;SDS011;47267;48.130;-2.040;2023-06-14T00:26:15;7.00;;;5.60;;
61397;SDS011;47267;48.130;-2.040;2023-06-14T00:28:41;6.85;;;6.25;;
61397;SDS011;47267;48.130;-2.040;2023-06-14T00:31:06;8.50;;;6.18;;
61397;SDS011;47267;48.130;-2.040;2023-06-14T00:33:32;6.60;;;6.00;;
61397;SDS011;47267;48.130;-2.040;2023-06-14T00:35:58;6.43;;;5.82;;
61397;SDS011;47267;48.130;-2.040;2023-06-14T00:38:24;7.78;;;6.65;;
61397;SDS011;47267;48.130;-2.040;2023-06-14T00:40:50;7.70;;;6.57;;
61397;SDS011;47267;48.130;-2.040;2023-06-14T00:43:16;7.55;;;6.43;;
61397;SDS011;47267;48.130;-2.040;2023-06-14T00:45:41;7.00;;;6.30;;
61397;SDS011;47267;48.130;-2.040;2023-06-14T00:48:07;7.93;;;6.03;;
61397;SDS011;47267;48.130;-2.040;2023-06-14T00:50:34;6.72;;;6.03;;
61397;SDS011;47267;48.130;-2.040;2023-06-14T00:53:01;7.50;;;6.78;;
61397;SDS011;47267;48.130;-2.040;2023-06-14T00:55:27;8.18;;;6.07;;
61397;SDS011;47267;48.130;-2.040;2023-06-14T00:57:54;6.93;;;6.22;;
61397;SDS011;47267;48.130;-2.040;2023-06-14T01:00:20;6.50;;;5.82;;
61397;SDS011;47267;48.130;-2.040;2023-06-14T01:02:46;6.55;;;5.85;;
61397;SDS011;47267;48.130;-2.040;2023-06-14T01:05:12;6.85;;;6.10;;
61397;SDS011;47267;48.130;-2.040;2023-06-14T01:07:55;8.13;;;6.40;;
61397;SDS011;47267;48.130;-2.040;2023-06-14T01:10:51;7.88;;;6.50;;
61397;SDS011;47267;48.130;-2.040;2023-06-14T01:16:02;7.45;;;6.70;;
61397;SDS011;47267;48.130;-2.040;2023-06-14T01:18:28;7.82;;;6.40;;
61397;SDS011;47267;48.130;-2.040;2023-06-14T01:20:55;6.70;;;6.00;;
61397;SDS011;47267;48.130;-2.040;2023-06-14T01:23:21;7.32;;;6.63;;
61397;SDS011;47267;48.130;-2.040;2023-06-14T01:25:48;7.07;;;6.15;;
61397;SDS011;47267;48.130;-2.040;2023-06-14T01:28:17;7.22;;;6.30;;
61397;SDS011;47267;48.130;-2.040;2023-06-14T01:30:46;7.13;;;6.43;;
61397;SDS011;47267;48.130;-2.040;2023-06-14T01:33:24;7.35;;;6.55;;
61397;SDS011;47267;48.130;-2.040;2023-06-14T01:35:52;6.65;;;6.05;;
61397;SDS011;47267;48.130;-2.040;2023-06-14T01:38:20;7.25;;;6.15;;
61397;SDS011;47267;48.130;-2.040;2023-06-14T01:40:48;7.05;;;6.05;;
61397;SDS011;47267;48.130;-2.040;2023-06-14T01:43:16;7.78;;;6.35;;
61397;SDS011;47267;48.130;-2.040;2023-06-14T01:45:42;6.63;;;5.95;;
61397;SDS011;47267;48.130;-2.040;2023-06-14T01:48:10;6.32;;;5.72;;
61397;SDS011;47267;48.130;-2.040;2023-06-14T01:50:37;6.28;;;5.55;;
61397;SDS011;47267;48.130;-2.040;2023-06-14T01:53:02;6.68;;;6.03;;
61397;SDS011;47267;48.130;-2.040;2023-06-14T01:55:31;6.80;;;5.95;;
61397;SDS011;47267;48.130;-2.040;2023-06-14T01:58:02;6.82;;;5.97;;
61397;SDS011;47267;48.130;-2.040;2023-06-14T02:00:28;6.18;;;5.57;;
61397;SDS011;47267;48.130;-2.040;2023-06-14T02:02:54;6.70;;;5.95;;
61397;SDS011;47267;48.130;-2.040;2023-06-14T02:05:20;6.50;;;5.90;;
61397;SDS011;47267;48.130;-2.040;2023-06-14T02:07:46;6.30;;;5.45;;
61397;SDS011;47267;48.130;-2.040;2023-06-14T02:10:12;6.00;;;5.40;;
61397;SDS011;47267;48.130;-2.040;2023-06-14T02:12:40;6.07;;;5.47;;
61397;SDS011;47267;48.130;-2.040;2023-06-14T02:15:06;7.03;;;5.50;;
61397;SDS011;47267;48.130;-2.040;2023-06-14T02:17:32;6.00;;;5.40;;
61397;SDS011;47267;48.130;-2.040;2023-06-14T02:19:59;6.43;;;5.63;;
61397;SDS011;47267;48.130;-2.040;2023-06-14T02:22:25;6.38;;;5.78;;
61397;SDS011;47267;48.130;-2.040;2023-06-14T02:24:51;5.82;;;5.20;;
61397;SDS011;47267;48.130;-2.040;2023-06-14T02:27:17;5.97;;;5.38;;
61397;SDS011;47267;48.130;-2.040;2023-06-14T02:29:43;6.05;;;5.43;;
61397;SDS011;47267;48.130;-2.040;2023-06-14T02:32:09;6.15;;;5.10;;
61397;SDS011;47267;48.130;-2.040;2023-06-14T02:34:35;7.30;;;5.70;;
61397;SDS011;47267;48.130;-2.040;2023-06-14T02:37:01;6.13;;;5.28;;
61397;SDS011;47267;48.130;-2.040;2023-06-14T02:39:29;5.68;;;5.10;;
61397;SDS011;47267;48.130;-2.040;2023-06-14T02:41:55;5.60;;;5.10;;
61397;SDS011;47267;48.130;-2.040;2023-06-14T02:44:25;6.05;;;5.45;;
61397;SDS011;47267;48.130;-2.040;2023-06-14T02:49:18;5.95;;;4.97;;
61397;SDS011;47267;48.130;-2.040;2023-06-14T02:51:44;6.60;;;5.35;;
61397;SDS011;47267;48.130;-2.040;2023-06-14T02:54:10;6.10;;;5.50;;
61397;SDS011;47267;48.130;-2.040;2023-06-14T02:56:36;6.22;;;5.63;;
61397;SDS011;47267;48.130;-2.040;2023-06-14T02:59:01;8.15;;;5.55;;
61397;SDS011;47267;48.130;-2.040;2023-06-14T03:01:27;6.50;;;5.82;;
61397;SDS011;47267;48.130;-2.040;2023-06-14T03:04:02;7.50;;;5.75;;
61397;SDS011;47267;48.130;-2.040;2023-06-14T03:06:28;6.28;;;5.38;;
61397;SDS011;47267;48.130;-2.040;2023-06-14T03:08:58;7.07;;;5.60;;
61397;SDS011;47267;48.130;-2.040;2023-06-14T03:11:26;8.43;;;5.95;;
61397;SDS011;47267;48.130;-2.040;2023-06-14T03:13:52;7.60;;;6.05;;
61397;SDS011;47267;48.130;-2.040;2023-06-14T03:16:18;9.23;;;6.50;;
61397;SDS011;47267;48.130;-2.040;2023-06-14T03:18:47;7.70;;;5.90;;
61397;SDS011;47267;48.130;-2.040;2023-06-14T03:21:13;9.50;;;6.72;;
61397;SDS011;47267;48.130;-2.040;2023-06-14T03:23:41;9.70;;;6.35;;
61397;SDS011;47267;48.130;-2.040;2023-06-14T03:26:07;9.05;;;6.28;;
61397;SDS011;47267;48.130;-2.040;2023-06-14T03:28:33;10.93;;;6.75;;
61397;SDS011;47267;48.130;-2.040;2023-06-14T03:30:59;11.63;;;7.45;;
61397;SDS011;47267;48.130;-2.040;2023-06-14T03:33:24;9.85;;;6.60;;
61397;SDS011;47267;48.130;-2.040;2023-06-14T03:35:50;8.85;;;6.85;;
61397;SDS011;47267;48.130;-2.040;2023-06-14T03:38:17;9.07;;;7.00;;
61397;SDS011;47267;48.130;-2.040;2023-06-14T03:40:42;10.27;;;7.13;;
61397;SDS011;47267;48.130;-2.040;2023-06-14T03:43:09;9.85;;;7.03;;
61397;SDS011;47267;48.130;-2.040;2023-06-14T03:45:35;11.32;;;7.47;;
61397;SDS011;47267;48.130;-2.040;2023-06-14T03:48:01;12.27;;;7.22;;
61397;SDS011;47267;48.130;-2.040;2023-06-14T03:50:27;11.10;;;7.55;;
61397;SDS011;47267;48.130;-2.040;2023-06-14T03:52:53;11.18;;;7.18;;
61397;SDS011;47267;48.130;-2.040;2023-06-14T03:55:19;9.18;;;6.43;;
61397;SDS011;47267;48.130;-2.040;2023-06-14T03:57:45;10.20;;;7.10;;
61397;SDS011;47267;48.130;-2.040;2023-06-14T04:00:10;13.63;;;7.30;;
61397;SDS011;47267;48.130;-2.040;2023-06-14T04:02:37;11.00;;;6.78;;
61397;SDS011;47267;48.130;-2.040;2023-06-14T04:05:03;11.82;;;6.93;;
61397;SDS011;47267;48.130;-2.040;2023-06-14T04:07:30;10.98;;;7.05;;
61397;SDS011;47267;48.130;-2.040;2023-06-14T04:09:56;9.75;;;6.90;;
61397;SDS011;47267;48.130;-2.040;2023-06-14T04:12:21;10.35;;;7.00;;
61397;SDS011;47267;48.130;-2.040;2023-06-14T04:14:47;15.73;;;7.60;;
61397;SDS011;47267;48.130;-2.040;2023-06-14T04:17:12;9.98;;;6.75;;
61397;SDS011;47267;48.130;-2.040;2023-06-14T04:19:39;11.55;;;7.07;;
61397;SDS011;47267;48.130;-2.040;2023-06-14T04:22:05;9.05;;;7.15;;
61397;SDS011;47267;48.130;-2.040;2023-06-14T04:24:30;10.60;;;7.03;;
61397;SDS011;47267;48.130;-2.040;2023-06-14T04:27:00;9.93;;;7.20;;
61397;SDS011;47267;48.130;-2.040;2023-06-14T04:29:26;10.60;;;6.93;;
61397;SDS011;47267;48.130;-2.040;2023-06-14T04:31:54;9.23;;;6.80;;
61397;SDS011;47267;48.130;-2.040;2023-06-14T04:34:23;9.18;;;6.80;;
61397;SDS011;47267;48.130;-2.040;2023-06-14T04:39:21;10.48;;;7.25;;
61397;SDS011;47267;48.130;-2.040;2023-06-14T04:41:48;9.90;;;6.90;;
61397;SDS011;47267;48.130;-2.040;2023-06-14T04:44:18;11.93;;;6.93;;
61397;SDS011;47267;48.130;-2.040;2023-06-14T04:46:45;10.25;;;7.63;;
61397;SDS011;47267;48.130;-2.040;2023-06-14T04:49:14;10.25;;;6.72;;
61397;SDS011;47267;48.130;-2.040;2023-06-14T04:51:44;10.55;;;7.57;;
61397;SDS011;47267;48.130;-2.040;2023-06-14T04:54:11;10.18;;;6.97;;
61397;SDS011;47267;48.130;-2.040;2023-06-14T04:56:40;9.07;;;7.10;;
61397;SDS011;47267;48.130;-2.040;2023-06-14T04:59:07;10.05;;;7.88;;
61397;SDS011;47267;48.130;-2.040;2023-06-14T05:01:34;11.48;;;7.80;;
61397;SDS011;47267;48.130;-2.040;2023-06-14T05:04:00;8.35;;;6.75;;
61397;SDS011;47267;48.130;-2.040;2023-06-14T05:06:26;9.60;;;7.38;;
61397;SDS011;47267;48.130;-2.040;2023-06-14T05:08:52;8.52;;;6.43;;
61397;SDS011;47267;48.130;-2.040;2023-06-14T05:11:18;9.90;;;6.78;;
61397;SDS011;47267;48.130;-2.040;2023-06-14T05:13:44;11.30;;;6.32;;
61397;SDS011;47267;48.130;-2.040;2023-06-14T05:16:11;13.18;;;7.53;;
61397;SDS011;47267;48.130;-2.040;2023-06-14T05:18:37;10.00;;;7.20;;
61397;SDS011;47267;48.130;-2.040;2023-06-14T05:21:05;8.48;;;6.45;;
61397;SDS011;47267;48.130;-2.040;2023-06-14T05:23:31;8.77;;;6.40;;
61397;SDS011;47267;48.130;-2.040;2023-06-14T05:25:57;10.10;;;7.28;;
61397;SDS011;47267;48.130;-2.040;2023-06-14T05:28:23;9.32;;;7.30;;
61397;SDS011;47267;48.130;-2.040;2023-06-14T05:30:48;9.73;;;7.00;;
61397;SDS011;47267;48.130;-2.040;2023-06-14T05:33:15;8.93;;;6.82;;
61397;SDS011;47267;48.130;-2.040;2023-06-14T05:35:40;9.43;;;7.00;;
61397;SDS011;47267;48.130;-2.040;2023-06-14T05:38:06;12.43;;;7.57;;
61397;SDS011;47267;48.130;-2.040;2023-06-14T05:40:32;10.18;;;7.55;;
61397;SDS011;47267;48.130;-2.040;2023-06-14T05:42:58;11.07;;;8.43;;
61397;SDS011;47267;48.130;-2.040;2023-06-14T05:45:24;11.13;;;7.85;;
61397;SDS011;47267;48.130;-2.040;2023-06-14T05:47:50;10.27;;;7.10;;
61397;SDS011;47267;48.130;-2.040;2023-06-14T05:50:16;9.68;;;7.43;;
61397;SDS011;47267;48.130;-2.040;2023-06-14T05:52:42;8.77;;;7.82;;
61397;SDS011;47267;48.130;-2.040;2023-06-14T05:55:07;9.15;;;7.35;;
61397;SDS011;47267;48.130;-2.040;2023-06-14T05:57:33;7.65;;;6.63;;
61397;SDS011;47267;48.130;-2.040;2023-06-14T06:00:00;8.80;;;7.00;;
61397;SDS011;47267;48.130;-2.040;2023-06-14T06:02:30;9.68;;;7.10;;
61397;SDS011;47267;48.130;-2.040;2023-06-14T06:04:56;9.68;;;7.32;;
61397;SDS011;47267;48.130;-2.040;2023-06-14T06:07:22;9.35;;;7.30;;
61397;SDS011;47267;48.130;-2.040;2023-06-14T06:09:47;10.05;;;7.00;;
61397;SDS011;47267;48.130;-2.040;2023-06-14T06:12:13;9.88;;;6.82;;
61397;SDS011;47267;48.130;-2.040;2023-06-14T06:14:39;8.27;;;6.70;;
61397;SDS011;47267;48.130;-2.040;2023-06-14T06:17:05;10.23;;;6.90;;
61397;SDS011;47267;48.130;-2.040;2023-06-14T06:19:31;8.75;;;6.78;;
61397;SDS011;47267;48.130;-2.040;2023-06-14T06:21:57;9.15;;;6.78;;
61397;SDS011;47267;48.130;-2.040;2023-06-14T06:24:22;8.82;;;7.10;;
61397;SDS011;47267;48.130;-2.040;2023-06-14T06:26:48;9.63;;;6.60;;
61397;SDS011;47267;48.130;-2.040;2023-06-14T06:29:13;6.28;;;5.35;;
61397;SDS011;47267;48.130;-2.040;2023-06-14T06:31:39;6.93;;;6.18;;
61397;SDS011;47267;48.130;-2.040;2023-06-14T06:34:05;7.35;;;6.15;;
61397;SDS011;47267;48.130;-2.040;2023-06-14T06:36:30;6.75;;;5.50;;
61397;SDS011;47267;48.130;-2.040;2023-06-14T06:38:56;7.55;;;6.57;;
61397;SDS011;47267;48.130;-2.040;2023-06-14T06:41:22;7.43;;;5.75;;
61397;SDS011;47267;48.130;-2.040;2023-06-14T06:43:47;7.78;;;6.05;;
61397;SDS011;47267;48.130;-2.040;2023-06-14T06:46:13;8.30;;;5.78;;
61397;SDS011;47267;48.130;-2.040;2023-06-14T06:48:39;6.25;;;5.60;;
61397;SDS011;47267;48.130;-2.040;2023-06-14T06:51:04;8.70;;;6.53;;
61397;SDS011;47267;48.130;-2.040;2023-06-14T06:53:30;6.43;;;5.15;;
61397;SDS011;47267;48.130;-2.040;2023-06-14T06:55:56;7.40;;;5.78;;
61397;SDS011;47267;48.130;-2.040;2023-06-14T06:58:22;8.25;;;5.90;;
61397;SDS011;47267;48.130;-2.040;2023-06-14T07:00:47;8.15;;;6.03;;
61397;SDS011;47267;48.130;-2.040;2023-06-14T07:03:13;8.07;;;6.15;;
61397;SDS011;47267;48.130;-2.040;2023-06-14T07:05:39;7.22;;;6.15;;
61397;SDS011;47267;48.130;-2.040;2023-06-14T07:08:04;8.10;;;5.75;;
61397;SDS011;47267;48.130;-2.040;2023-06-14T07:10:30;6.78;;;6.10;;
61397;SDS011;47267;48.130;-2.040;2023-06-14T07:12:56;7.13;;;6.00;;
61397;SDS011;47267;48.130;-2.040;2023-06-14T07:15:21;6.95;;;6.10;;
61397;SDS011;47267;48.130;-2.040;2023-06-14T07:17:47;6.53;;;5.82;;
61397;SDS011;47267;48.130;-2.040;2023-06-14T07:20:13;7.82;;;6.00;;
61397;SDS011;47267;48.130;-2.040;2023-06-14T07:22:39;8.00;;;6.15;;
61397;SDS011;47267;48.130;-2.040;2023-06-14T07:25:11;7.05;;;6.30;;
61397;SDS011;47267;48.130;-2.040;2023-06-14T07:27:41;7.30;;;5.65;;
61397;SDS011;47267;48.130;-2.040;2023-06-14T07:30:08;7.53;;;5.97;;
61397;SDS011;47267;48.130;-2.040;2023-06-14T07:32:34;6.65;;;5.75;;
61397;SDS011;47267;48.130;-2.040;2023-06-14T07:35:00;6.32;;;5.60;;
61397;SDS011;47267;48.130;-2.040;2023-06-14T07:37:26;8.25;;;5.72;;
61397;SDS011;47267;48.130;-2.040;2023-06-14T07:39:52;8.40;;;5.50;;
61397;SDS011;47267;48.130;-2.040;2023-06-14T07:42:18;6.75;;;6.00;;
61397;SDS011;47267;48.130;-2.040;2023-06-14T07:44:44;7.03;;;5.95;;
61397;SDS011;47267;48.130;-2.040;2023-06-14T07:47:10;6.80;;;5.85;;
61397;SDS011;47267;48.130;-2.040;2023-06-14T07:49:35;6.32;;;5.72;;
61397;SDS011;47267;48.130;-2.040;2023-06-14T07:52:01;6.05;;;5.30;;
61397;SDS011;47267;48.130;-2.040;2023-06-14T07:54:27;7.65;;;5.88;;
61397;SDS011;47267;48.130;-2.040;2023-06-14T07:56:52;5.88;;;5.28;;
61397;SDS011;47267;48.130;-2.040;2023-06-14T07:59:18;8.82;;;6.00;;
61397;SDS011;47267;48.130;-2.040;2023-06-14T08:01:44;6.47;;;5.65;;
61397;SDS011;47267;48.130;-2.040;2023-06-14T08:04:15;7.57;;;5.72;;
61397;SDS011;47267;48.130;-2.040;2023-06-14T08:06:40;6.55;;;5.68;;
61397;SDS011;47267;48.130;-2.040;2023-06-14T08:09:09;5.78;;;5.20;;
61397;SDS011;47267;48.130;-2.040;2023-06-14T08:11:36;7.93;;;5.50;;
61397;SDS011;47267;48.130;-2.040;2023-06-14T08:14:02;6.68;;;5.25;;
61397;SDS011;47267;48.130;-2.040;2023-06-14T08:16:28;8.15;;;5.13;;
61397;SDS011;47267;48.130;-2.040;2023-06-14T08:18:54;7.07;;;6.00;;
61397;SDS011;47267;48.130;-2.040;2023-06-14T08:21:20;7.38;;;5.68;;
61397;SDS011;47267;48.130;-2.040;2023-06-14T08:23:46;5.75;;;5.13;;
61397;SDS011;47267;48.130;-2.040;2023-06-14T08:26:12;7.18;;;5.25;;
61397;SDS011;47267;48.130;-2.040;2023-06-14T08:28:38;8.05;;;5.55;;
61397;SDS011;47267;48.130;-2.040;2023-06-14T08:31:04;7.50;;;6.18;;
61397;SDS011;47267;48.130;-2.040;2023-06-14T08:33:30;7.25;;;5.47;;
61397;SDS011;47267;48.130;-2.040;2023-06-14T08:35:58;5.72;;;5.00;;
61397;SDS011;47267;48.130;-2.040;2023-06-14T08:38:23;5.78;;;5.18;;
61397;SDS011;47267;48.130;-2.040;2023-06-14T08:40:50;5.68;;;5.13;;
61397;SDS011;47267;48.130;-2.040;2023-06-14T08:43:17;6.00;;;5.30;;
61397;SDS011;47267;48.130;-2.040;2023-06-14T08:45:43;5.88;;;4.95;;
61397;SDS011;47267;48.130;-2.040;2023-06-14T08:48:12;6.07;;;5.40;;
61397;SDS011;47267;48.130;-2.040;2023-06-14T08:50:42;5.63;;;5.07;;
61397;SDS011;47267;48.130;-2.040;2023-06-14T08:53:11;5.97;;;5.20;;
61397;SDS011;47267;48.130;-2.040;2023-06-14T08:55:45;6.03;;;5.43;;
61397;SDS011;47267;48.130;-2.040;2023-06-14T08:58:12;6.38;;;5.40;;
61397;SDS011;47267;48.130;-2.040;2023-06-14T09:00:39;5.10;;;4.60;;
61397;SDS011;47267;48.130;-2.040;2023-06-14T09:03:06;6.68;;;5.10;;
61397;SDS011;47267;48.130;-2.040;2023-06-14T09:05:38;6.00;;;5.40;;
61397;SDS011;47267;48.130;-2.040;2023-06-14T09:08:03;6.30;;;5.70;;
61397;SDS011;47267;48.130;-2.040;2023-06-14T09:10:30;7.32;;;6.10;;
61397;SDS011;47267;48.130;-2.040;2023-06-14T09:13:02;7.28;;;5.80;;
61397;SDS011;47267;48.130;-2.040;2023-06-14T09:15:28;6.82;;;5.57;;
61397;SDS011;47267;48.130;-2.040;2023-06-14T09:17:54;6.03;;;5.20;;
61397;SDS011;47267;48.130;-2.040;2023-06-14T09:20:20;6.38;;;5.32;;
61397;SDS011;47267;48.130;-2.040;2023-06-14T09:22:48;7.18;;;5.10;;
61397;SDS011;47267;48.130;-2.040;2023-06-14T09:25:14;6.30;;;5.10;;
61397;SDS011;47267;48.130;-2.040;2023-06-14T09:27:40;7.65;;;5.28;;
61397;SDS011;47267;48.130;-2.040;2023-06-14T09:30:08;5.97;;;5.38;;
61397;SDS011;47267;48.130;-2.040;2023-06-14T09:32:38;6.18;;;5.22;;
61397;SDS011;47267;48.130;-2.040;2023-06-14T09:35:08;7.00;;;5.13;;
61397;SDS011;47267;48.130;-2.040;2023-06-14T09:37:34;6.10;;;4.78;;
61397;SDS011;47267;48.130;-2.040;2023-06-14T09:40:02;6.30;;;4.90;;
61397;SDS011;47267;48.130;-2.040;2023-06-14T09:42:29;6.07;;;5.45;;
61397;SDS011;47267;48.130;-2.040;2023-06-14T09:44:55;6.20;;;5.35;;
61397;SDS011;47267;48.130;-2.040;2023-06-14T09:47:21;6.80;;;5.13;;
61397;SDS011;47267;48.130;-2.040;2023-06-14T09:49:48;7.43;;;4.60;;
61397;SDS011;47267;48.130;-2.040;2023-06-14T09:52:16;6.07;;;5.47;;
61397;SDS011;47267;48.130;-2.040;2023-06-14T09:54:44;5.72;;;5.20;;
61397;SDS011;47267;48.130;-2.040;2023-06-14T09:57:19;5.65;;;4.85;;
61397;SDS011;47267;48.130;-2.040;2023-06-14T09:59:47;6.50;;;5.40;;
61397;SDS011;47267;48.130;-2.040;2023-06-14T10:02:28;6.18;;;4.93;;
61397;SDS011;47267;48.130;-2.040;2023-06-14T10:10:03;6.78;;;5.35;;
61397;SDS011;47267;48.130;-2.040;2023-06-14T10:12:29;6.25;;;4.93;;
61397;SDS011;47267;48.130;-2.040;2023-06-14T10:14:55;6.22;;;5.22;;
61397;SDS011;47267;48.130;-2.040;2023-06-14T10:19:55;5.63;;;5.05;;
61397;SDS011;47267;48.130;-2.040;2023-06-14T10:25:35;7.40;;;5.07;;
61397;SDS011;47267;48.130;-2.040;2023-06-14T10:28:16;5.85;;;5.25;;
61397;SDS011;47267;48.130;-2.040;2023-06-14T10:33:48;6.07;;;5.32;;
61397;SDS011;47267;48.130;-2.040;2023-06-14T10:36:24;5.90;;;5.30;;
61397;SDS011;47267;48.130;-2.040;2023-06-14T10:38:58;6.75;;;5.40;;
61397;SDS011;47267;48.130;-2.040;2023-06-14T10:41:27;6.43;;;5.25;;
61397;SDS011;47267;48.130;-2.040;2023-06-14T10:46:38;8.45;;;5.07;;
61397;SDS011;47267;48.130;-2.040;2023-06-14T10:49:16;6.15;;;5.00;;
61397;SDS011;47267;48.130;-2.040;2023-06-14T10:51:46;6.28;;;5.53;;
61397;SDS011;47267;48.130;-2.040;2023-06-14T10:54:15;5.80;;;5.20;;
61397;SDS011;47267;48.130;-2.040;2023-06-14T10:56:51;6.93;;;5.20;;
61397;SDS011;47267;48.130;-2.040;2023-06-14T10:59:18;7.45;;;5.40;;
61397;SDS011;47267;48.130;-2.040;2023-06-14T11:01:58;6.25;;;5.43;;
61397;SDS011;47267;48.130;-2.040;2023-06-14T11:04:50;6.10;;;5.10;;
61397;SDS011;47267;48.130;-2.040;2023-06-14T11:10:16;7.00;;;5.18;;
61397;SDS011;47267;48.130;-2.040;2023-06-14T11:13:01;6.75;;;5.00;;
61397;SDS011;47267;48.130;-2.040;2023-06-14T11:15:28;7.35;;;5.53;;
61397;SDS011;47267;48.130;-2.040;2023-06-14T11:17:55;6.20;;;5.22;;
61397;SDS011;47267;48.130;-2.040;2023-06-14T11:20:24;5.88;;;4.90;;
61397;SDS011;47267;48.130;-2.040;2023-06-14T11:22:51;7.00;;;5.57;;
61397;SDS011;47267;48.130;-2.040;2023-06-14T11:25:17;5.78;;;5.15;;
61397;SDS011;47267;48.130;-2.040;2023-06-14T11:27:43;5.93;;;5.00;;
61397;SDS011;47267;48.130;-2.040;2023-06-14T11:30:10;7.25;;;4.97;;
61397;SDS011;47267;48.130;-2.040;2023-06-14T11:32:36;6.85;;;5.40;;
61397;SDS011;47267;48.130;-2.040;2023-06-14T11:35:03;6.18;;;5.30;;
61397;SDS011;47267;48.130;-2.040;2023-06-14T11:37:30;5.65;;;4.93;;
61397;SDS011;47267;48.130;-2.040;2023-06-14T11:39:58;6.20;;;5.35;;
61397;SDS011;47267;48.130;-2.040;2023-06-14T11:42:28;6.70;;;4.95;;
61397;SDS011;47267;48.130;-2.040;2023-06-14T11:44:55;5.70;;;5.10;;
61397;SDS011;47267;48.130;-2.040;2023-06-14T11:47:21;5.82;;;4.82;;
61397;SDS011;47267;48.130;-2.040;2023-06-14T11:49:47;5.45;;;4.85;;
61397;SDS011;47267;48.130;-2.040;2023-06-14T11:52:13;5.25;;;4.70;;
61397;SDS011;47267;48.130;-2.040;2023-06-14T11:54:39;5.43;;;4.90;;
61397;SDS011;47267;48.130;-2.040;2023-06-14T11:57:06;6.55;;;5.35;;
61397;SDS011;47267;48.130;-2.040;2023-06-14T11:59:37;5.85;;;5.15;;
61397;SDS011;47267;48.130;-2.040;2023-06-14T12:02:06;7.25;;;5.10;;
61397;SDS011;47267;48.130;-2.040;2023-06-14T12:04:32;6.15;;;5.20;;
61397;SDS011;47267;48.130;-2.040;2023-06-14T12:07:17;6.25;;;5.13;;
61397;SDS011;47267;48.130;-2.040;2023-06-14T12:12:22;7.53;;;5.72;;
61397;SDS011;47267;48.130;-2.040;2023-06-14T12:17:16;7.10;;;5.50;;
61397;SDS011;47267;48.130;-2.040;2023-06-14T12:19:43;7.43;;;5.30;;
61397;SDS011;47267;48.130;-2.040;2023-06-14T12:22:10;8.43;;;5.85;;
61397;SDS011;47267;48.130;-2.040;2023-06-14T12:24:37;6.82;;;5.50;;
61397;SDS011;47267;48.130;-2.040;2023-06-14T12:27:04;6.80;;;5.72;;
61397;SDS011;47267;48.130;-2.040;2023-06-14T12:29:30;7.57;;;5.70;;
61397;SDS011;47267;48.130;-2.040;2023-06-14T12:31:57;7.93;;;5.60;;
61397;SDS011;47267;48.130;-2.040;2023-06-14T12:34:25;6.18;;;5.57;;
61397;SDS011;47267;48.130;-2.040;2023-06-14T12:36:56;6.80;;;6.00;;
61397;SDS011;47267;48.130;-2.040;2023-06-14T12:39:22;8.85;;;5.80;;
61397;SDS011;47267;48.130;-2.040;2023-06-14T12:41:48;6.20;;;5.60;;
61397;SDS011;47267;48.130;-2.040;2023-06-14T12:44:13;6.63;;;5.95;;
61397;SDS011;47267;48.130;-2.040;2023-06-14T12:46:40;7.13;;;5.70;;
61397;SDS011;47267;48.130;-2.040;2023-06-14T12:49:08;6.82;;;5.70;;
61397;SDS011;47267;48.130;-2.040;2023-06-14T12:51:35;6.53;;;5.80;;
61397;SDS011;47267;48.130;-2.040;2023-06-14T12:54:01;7.88;;;5.55;;
61397;SDS011;47267;48.130;-2.040;2023-06-14T12:56:27;7.90;;;5.30;;
61397;SDS011;47267;48.130;-2.040;2023-06-14T12:58:53;8.48;;;5.68;;
61397;SDS011;47267;48.130;-2.040;2023-06-14T13:01:20;9.65;;;5.97;;
61397;SDS011;47267;48.130;-2.040;2023-06-14T13:03:46;7.65;;;5.80;;
61397;SDS011;47267;48.130;-2.040;2023-06-14T13:06:12;7.85;;;5.85;;
61397;SDS011;47267;48.130;-2.040;2023-06-14T13:08:39;8.30;;;5.95;;
61397;SDS011;47267;48.130;-2.040;2023-06-14T13:11:19;11.77;;;7.00;;
61397;SDS011;47267;48.130;-2.040;2023-06-14T13:13:45;11.07;;;5.85;;
61397;SDS011;47267;48.130;-2.040;2023-06-14T13:16:11;8.43;;;6.03;;
61397;SDS011;47267;48.130;-2.040;2023-06-14T13:18:38;7.25;;;6.07;;
61397;SDS011;47267;48.130;-2.040;2023-06-14T13:21:04;9.18;;;5.97;;
61397;SDS011;47267;48.130;-2.040;2023-06-14T13:23:30;8.98;;;5.93;;
61397;SDS011;47267;48.130;-2.040;2023-06-14T13:25:55;8.68;;;6.03;;
61397;SDS011;47267;48.130;-2.040;2023-06-14T13:28:21;8.55;;;6.13;;
61397;SDS011;47267;48.130;-2.040;2023-06-14T13:30:47;9.10;;;6.20;;
61397;SDS011;47267;48.130;-2.040;2023-06-14T13:33:13;7.30;;;5.88;;
61397;SDS011;47267;48.130;-2.040;2023-06-14T13:35:39;11.13;;;6.68;;
61397;SDS011;47267;48.130;-2.040;2023-06-14T13:38:05;10.07;;;6.88;;
61397;SDS011;47267;48.130;-2.040;2023-06-14T13:40:30;9.18;;;5.85;;
61397;SDS011;47267;48.130;-2.040;2023-06-14T13:42:56;9.65;;;6.05;;
61397;SDS011;47267;48.130;-2.040;2023-06-14T13:45:22;9.23;;;6.10;;
61397;SDS011;47267;48.130;-2.040;2023-06-14T13:47:47;11.57;;;6.43;;
61397;SDS011;47267;48.130;-2.040;2023-06-14T13:50:13;10.68;;;7.15;;
61397;SDS011;47267;48.130;-2.040;2023-06-14T13:52:41;10.68;;;6.60;;
61397;SDS011;47267;48.130;-2.040;2023-06-14T13:55:07;10.20;;;6.20;;
61397;SDS011;47267;48.130;-2.040;2023-06-14T13:57:33;12.30;;;6.55;;
61397;SDS011;47267;48.130;-2.040;2023-06-14T13:59:58;11.27;;;6.97;;
61397;SDS011;47267;48.130;-2.040;2023-06-14T14:02:27;7.70;;;6.82;;
61397;SDS011;47267;48.130;-2.040;2023-06-14T14:04:54;9.35;;;6.65;;
61397;SDS011;47267;48.130;-2.040;2023-06-14T14:07:20;10.68;;;6.20;;
61397;SDS011;47267;48.130;-2.040;2023-06-14T14:09:47;8.18;;;6.60;;
61397;SDS011;47267;48.130;-2.040;2023-06-14T14:12:13;8.38;;;6.15;;
61397;SDS011;47267;48.130;-2.040;2023-06-14T14:14:42;8.07;;;6.75;;
61397;SDS011;47267;48.130;-2.040;2023-06-14T14:17:07;10.55;;;6.60;;
61397;SDS011;47267;48.130;-2.040;2023-06-14T14:19:33;9.07;;;6.55;;
61397;SDS011;47267;48.130;-2.040;2023-06-14T14:21:59;9.85;;;6.72;;
61397;SDS011;47267;48.130;-2.040;2023-06-14T14:24:26;13.23;;;7.32;;
61397;SDS011;47267;48.130;-2.040;2023-06-14T14:26:52;8.27;;;6.40;;
61397;SDS011;47267;48.130;-2.040;2023-06-14T14:29:18;11.60;;;6.72;;
61397;SDS011;47267;48.130;-2.040;2023-06-14T14:31:44;6.85;;;5.90;;
61397;SDS011;47267;48.130;-2.040;2023-06-14T14:34:10;8.52;;;6.32;;
61397;SDS011;47267;48.130;-2.040;2023-06-14T14:36:36;10.25;;;6.50;;
61397;SDS011;47267;48.130;-2.040;2023-06-14T14:39:03;10.27;;;6.63;;
61397;SDS011;47267;48.130;-2.040;2023-06-14T14:41:29;9.55;;;6.90;;
61397;SDS011;47267;48.130;-2.040;2023-06-14T14:43:55;7.38;;;6.45;;
61397;SDS011;47267;48.130;-2.040;2023-06-14T14:46:20;8.80;;;6.28;;
61397;SDS011;47267;48.130;-2.040;2023-06-14T14:48:46;6.97;;;6.03;;
61397;SDS011;47267;48.130;-2.040;2023-06-14T14:51:12;9.10;;;6.35;;
61397;SDS011;47267;48.130;-2.040;2023-06-14T14:53:37;7.18;;;5.70;;
61397;SDS011;47267;48.130;-2.040;2023-06-14T14:56:03;10.52;;;6.18;;
61397;SDS011;47267;48.130;-2.040;2023-06-14T14:58:29;8.55;;;6.13;;
61397;SDS011;47267;48.130;-2.040;2023-06-14T15:00:55;8.90;;;6.18;;
61397;SDS011;47267;48.130;-2.040;2023-06-14T15:03:21;8.68;;;6.13;;
61397;SDS011;47267;48.130;-2.040;2023-06-14T15:05:46;10.43;;;6.30;;